Time;durP1;ratioP1;P1;durP2;ratioP2;P2;SDS_P1;SDS_P2;PMS_P1;PMS_P2;Temp;Humidity;BMP_temperature;BMP_pressure;BME280_temperature;BME280_humidity;BME280_pressure;Samples;Min_cycle;Max_cycle;Signal;HPM_P1;HPM_P2
2022/09/23 00:01:01;;;;;;;68.50;50.35;;;19.80;62.30;;;;;;4977910;28;101186;-59
2022/09/23 00:03:29;;;;;;;68.55;50.38;;;19.80;62.30;;;;;;4966998;28;96253;-58
2022/09/23 00:06:06;;;;;;;70.07;50.72;;;19.80;62.40;;;;;;4966502;28;95364;-59
2022/09/23 00:08:32;;;;;;;68.75;50.25;;;19.80;62.30;;;;;;4965683;28;95115;-58
2022/09/23 00:11:10;;;;;;;68.35;50.40;;;19.80;62.20;;;;;;4960736;28;94947;-59
2022/09/23 00:13:37;;;;;;;69.95;50.55;;;19.80;62.50;;;;;;4953794;28;94561;-59
2022/09/23 00:16:05;;;;;;;69.85;50.92;;;19.80;62.10;;;;;;4964910;28;95769;-59
2022/09/23 00:18:31;;;;;;;71.18;50.50;;;19.70;62.20;;;;;;4970920;28;94672;-59
2022/09/23 00:21:00;;;;;;;67.75;49.78;;;19.70;62.30;;;;;;4976214;28;95739;-59
2022/09/23 00:23:26;;;;;;;68.18;50.10;;;19.70;62.20;;;;;;4963554;28;101128;-60
2022/09/23 00:25:59;;;;;;;68.40;50.50;;;19.70;62.10;;;;;;4962427;28;97480;-59
2022/09/23 00:28:25;;;;;;;70.85;50.47;;;19.70;62.10;;;;;;4968706;28;95048;-59
2022/09/23 00:30:51;;;;;;;68.75;50.30;;;19.70;62.20;;;;;;4952696;28;97078;-59
2022/09/23 00:33:17;;;;;;;68.22;50.60;;;19.60;62.30;;;;;;4959189;28;100151;-60
2022/09/23 00:35:42;;;;;;;68.15;50.25;;;19.70;62.30;;;;;;4956829;28;96086;-59
2022/09/23 00:38:08;;;;;;;69.65;50.67;;;19.70;62.30;;;;;;4967895;28;98520;-60
2022/09/23 00:40:35;;;;;;;68.38;50.53;;;19.70;62.30;;;;;;4963151;28;95999;-58
2022/09/23 00:43:01;;;;;;;68.13;50.28;;;19.70;62.20;;;;;;4956287;28;97196;-59
2022/09/23 00:45:28;;;;;;;68.30;50.40;;;19.60;62.30;;;;;;4968522;28;98731;-60
2022/09/23 00:48:00;;;;;;;69.25;50.53;;;19.60;63.00;;;;;;4973945;28;97505;-59
2022/09/23 00:50:44;;;;;;;67.93;50.20;;;19.60;62.20;;;;;;4963233;28;95596;-59
2022/09/23 00:53:14;;;;;;;68.97;50.15;;;19.60;62.50;;;;;;4966759;28;100158;-59
2022/09/23 00:55:46;;;;;;;71.05;50.15;;;19.60;62.30;;;;;;4968067;28;95303;-59
2022/09/23 00:58:16;;;;;;;70.72;50.90;;;19.60;62.20;;;;;;4968985;28;102572;-58
2022/09/23 01:00:42;;;;;;;70.13;50.45;;;19.60;62.20;;;;;;4964992;28;97926;-58
2022/09/23 01:03:09;;;;;;;68.35;50.10;;;19.60;62.10;;;;;;4964716;28;94427;-60
2022/09/23 01:05:35;;;;;;;70.38;50.38;;;19.60;62.00;;;;;;4962641;28;96868;-59
2022/09/23 01:08:02;;;;;;;68.68;50.20;;;19.60;62.00;;;;;;4962939;28;96206;-58
2022/09/23 01:10:41;;;;;;;67.80;50.22;;;19.60;62.10;;;;;;4964866;28;99658;-59
2022/09/23 01:13:22;;;;;;;68.90;50.00;;;19.60;62.20;;;;;;4961228;28;96530;-57
2022/09/23 01:15:57;;;;;;;69.72;50.28;;;19.60;62.10;;;;;;4970141;28;94918;-57
2022/09/23 01:18:48;;;;;;;68.55;50.50;;;19.50;62.10;;;;;;4962085;28;97245;-60
2022/09/23 01:21:23;;;;;;;68.90;50.38;;;19.50;62.30;;;;;;4966410;28;97839;-57
2022/09/23 01:23:51;;;;;;;68.30;50.42;;;19.50;62.30;;;;;;4962219;28;95327;-59
2022/09/23 01:26:42;;;;;;;70.18;50.22;;;19.40;62.30;;;;;;4962727;28;95271;-58
2022/09/23 01:29:39;;;;;;;69.07;50.63;;;19.40;62.40;;;;;;4961790;28;95551;-59
2022/09/23 01:32:10;;;;;;;67.88;50.30;;;19.40;62.60;;;;;;4965448;28;96187;-59
2022/09/23 01:35:08;;;;;;;69.05;50.13;;;19.30;62.80;;;;;;4966538;28;95171;-59
2022/09/23 01:38:29;;;;;;;67.15;49.83;;;19.30;62.60;;;;;;4961011;28;96582;-57
2022/09/23 01:41:24;;;;;;;68.40;50.10;;;19.40;62.60;;;;;;4937951;28;95680;-59
2022/09/23 01:44:04;;;;;;;67.72;50.03;;;19.40;62.40;;;;;;4945069;28;95131;-58
2022/09/23 01:46:54;;;;;;;68.73;50.07;;;19.40;62.30;;;;;;4966677;28;94995;-59
2022/09/23 01:49:55;;;;;;;68.47;49.95;;;19.40;62.40;;;;;;4957892;28;95216;-58
2022/09/23 01:52:39;;;;;;;68.30;49.70;;;19.30;62.80;;;;;;4964995;28;95641;-59
2022/09/23 01:55:19;;;;;;;68.07;50.25;;;19.40;62.70;;;;;;4971141;28;95254;-57
2022/09/23 01:58:08;;;;;;;67.82;50.25;;;19.30;62.60;;;;;;4965374;28;95394;-59
2022/09/23 02:00:39;;;;;;;68.68;50.08;;;19.20;62.90;;;;;;4958538;28;95201;-59
2022/09/23 02:03:31;;;;;;;68.35;50.13;;;19.30;62.90;;;;;;4963030;28;95019;-60
2022/09/23 02:06:10;;;;;;;68.75;50.55;;;19.20;62.70;;;;;;4963046;28;96479;-60
2022/09/23 02:08:46;;;;;;;67.00;50.03;;;19.30;62.70;;;;;;4963235;28;97666;-60
2022/09/23 02:11:14;;;;;;;70.13;50.20;;;19.20;62.60;;;;;;4963350;28;95890;-59
2022/09/23 02:13:53;;;;;;;67.35;50.00;;;19.20;62.50;;;;;;4972149;28;95354;-59
2022/09/23 02:16:28;;;;;;;71.57;50.47;;;19.30;62.60;;;;;;4963902;28;96723;-59
2022/09/23 02:19:13;;;;;;;66.85;49.95;;;19.20;62.50;;;;;;4965071;28;94979;-58
2022/09/23 02:21:51;;;;;;;67.78;49.78;;;19.20;62.60;;;;;;4962168;28;97088;-59
2022/09/23 02:24:20;;;;;;;67.65;50.00;;;19.20;62.70;;;;;;4966328;28;94750;-59
2022/09/23 02:26:53;;;;;;;68.95;50.03;;;19.20;62.70;;;;;;4964689;28;94944;-59
2022/09/23 02:29:27;;;;;;;67.00;49.85;;;19.20;62.80;;;;;;4961638;28;95575;-59
2022/09/23 02:32:03;;;;;;;67.53;50.17;;;19.20;62.80;;;;;;4962883;28;96100;-59
2022/09/23 02:35:01;;;;;;;68.45;50.28;;;19.20;62.70;;;;;;4964319;28;96674;-58
2022/09/23 02:37:47;;;;;;;67.97;49.85;;;19.10;62.70;;;;;;4947313;28;95515;-59
2022/09/23 02:40:37;;;;;;;67.72;50.33;;;19.20;62.70;;;;;;4961638;28;98986;-59
2022/09/23 02:43:18;;;;;;;67.25;49.72;;;19.20;62.50;;;;;;4963066;28;98799;-57
2022/09/23 02:45:45;;;;;;;68.25;49.83;;;19.10;62.60;;;;;;4965653;28;96266;-60
2022/09/23 02:48:26;;;;;;;67.45;49.85;;;19.20;62.60;;;;;;4961462;28;95107;-58
2022/09/23 02:50:53;;;;;;;67.22;49.95;;;19.20;62.60;;;;;;4965975;28;94846;-60
2022/09/23 02:53:21;;;;;;;67.53;50.05;;;19.10;62.50;;;;;;4969533;28;95213;-58
2022/09/23 02:55:47;;;;;;;69.13;50.10;;;19.10;62.80;;;;;;4966615;28;95127;-58
2022/09/23 02:58:13;;;;;;;67.07;49.78;;;19.10;62.80;;;;;;4965004;28;95799;-60
2022/09/23 03:01:07;;;;;;;67.22;50.00;;;19.10;62.70;;;;;;4970707;28;97148;-60
2022/09/23 03:03:48;;;;;;;66.82;50.05;;;19.10;62.50;;;;;;4967005;28;95648;-58
2022/09/23 03:06:40;;;;;;;67.47;49.92;;;19.10;62.80;;;;;;4973756;28;95886;-59
2022/09/23 03:09:13;;;;;;;66.70;49.92;;;19.10;62.70;;;;;;4968293;28;95471;-59
2022/09/23 03:11:44;;;;;;;68.47;50.35;;;19.00;63.30;;;;;;4970734;28;96949;-60
2022/09/23 03:14:16;;;;;;;68.22;50.28;;;19.10;62.70;;;;;;4968717;28;95140;-60
2022/09/23 03:16:55;;;;;;;67.50;50.20;;;19.10;62.60;;;;;;4967971;28;96003;-60
2022/09/23 03:19:54;;;;;;;68.22;50.40;;;19.10;62.50;;;;;;4968732;28;95244;-61
2022/09/23 03:22:32;;;;;;;66.90;50.05;;;19.10;62.60;;;;;;4968138;28;95899;-56
2022/09/23 03:25:09;;;;;;;67.57;49.90;;;19.10;62.50;;;;;;4967103;28;96433;-60
2022/09/23 03:27:36;;;;;;;67.47;49.72;;;19.10;62.40;;;;;;4962151;28;96211;-60
2022/09/23 03:30:05;;;;;;;67.40;49.95;;;19.10;62.60;;;;;;4959999;28;96025;-59
2022/09/23 03:32:33;;;;;;;68.05;50.22;;;19.00;62.60;;;;;;4969538;28;96524;-60
2022/09/23 03:35:01;;;;;;;68.90;50.42;;;19.00;62.70;;;;;;4957865;28;95980;-60
2022/09/23 03:37:37;;;;;;;66.93;49.88;;;19.00;62.60;;;;;;4954826;28;95691;-56
2022/09/23 03:40:18;;;;;;;68.05;50.17;;;19.00;62.50;;;;;;4963607;28;96199;-60
2022/09/23 03:42:47;;;;;;;69.50;50.50;;;19.10;62.40;;;;;;4961916;28;94142;-59
2022/09/23 03:45:17;;;;;;;68.10;50.25;;;19.00;62.50;;;;;;4964626;28;95629;-61
2022/09/23 03:47:44;;;;;;;67.32;50.40;;;19.00;62.40;;;;;;4966678;28;94884;-60
2022/09/23 03:50:12;;;;;;;68.00;50.35;;;19.00;62.40;;;;;;4957602;28;97299;-60
2022/09/23 03:52:39;;;;;;;67.85;50.60;;;19.00;62.50;;;;;;4958767;28;95882;-61
2022/09/23 03:55:06;;;;;;;67.57;50.42;;;19.10;62.40;;;;;;4969301;28;96793;-60
2022/09/23 03:57:32;;;;;;;67.53;50.20;;;19.00;62.10;;;;;;4961524;28;95556;-60
2022/09/23 03:59:57;;;;;;;67.35;50.45;;;19.00;62.50;;;;;;4958468;28;94952;-60
2022/09/23 04:02:23;;;;;;;68.90;50.83;;;19.00;62.30;;;;;;4960942;28;95183;-58
2022/09/23 04:04:49;;;;;;;68.47;50.30;;;19.00;62.30;;;;;;4968643;28;95649;-60
2022/09/23 04:07:15;;;;;;;68.20;50.25;;;19.00;62.20;;;;;;4971542;28;94958;-57
2022/09/23 04:09:41;;;;;;;68.45;50.28;;;19.00;62.40;;;;;;4947295;28;96204;-60
2022/09/23 04:12:07;;;;;;;67.90;50.30;;;19.10;62.20;;;;;;4966388;28;95360;-60
2022/09/23 04:14:32;;;;;;;68.40;50.33;;;19.10;62.00;;;;;;4968577;28;97742;-60
2022/09/23 04:16:58;;;;;;;67.38;50.47;;;19.00;62.10;;;;;;4966019;28;96238;-58
2022/09/23 04:19:24;;;;;;;68.53;50.83;;;19.00;62.30;;;;;;4961830;28;98665;-60
2022/09/23 04:21:50;;;;;;;67.10;50.13;;;19.00;62.20;;;;;;4971818;28;94919;-60
2022/09/23 04:24:16;;;;;;;71.72;50.38;;;19.00;62.30;;;;;;4960577;28;95492;-61
2022/09/23 04:26:42;;;;;;;69.13;50.78;;;19.00;62.30;;;;;;4958101;28;96154;-60
2022/09/23 04:29:09;;;;;;;67.70;50.25;;;19.00;62.30;;;;;;4962387;28;96468;-60
2022/09/23 04:31:35;;;;;;;67.85;50.40;;;18.90;62.30;;;;;;4966835;28;101174;-61
2022/09/23 04:34:01;;;;;;;68.32;50.30;;;18.90;62.30;;;;;;4959509;28;96453;-60
2022/09/23 04:36:28;;;;;;;69.13;50.15;;;19.00;62.30;;;;;;4957580;28;97008;-59
2022/09/23 04:38:53;;;;;;;67.70;50.47;;;19.00;62.20;;;;;;4970767;28;96006;-60
2022/09/23 04:41:19;;;;;;;69.85;50.53;;;19.00;62.30;;;;;;4971123;28;95072;-60
2022/09/23 04:43:45;;;;;;;67.95;50.15;;;18.90;62.40;;;;;;4967733;28;95417;-61
2022/09/23 04:46:13;;;;;;;68.50;50.45;;;18.90;62.30;;;;;;4965485;28;95103;-60
2022/09/23 04:48:40;;;;;;;68.03;50.53;;;18.90;62.40;;;;;;4963982;28;95361;-60
2022/09/23 04:51:26;;;;;;;68.65;50.35;;;18.90;62.30;;;;;;4963812;28;95203;-60
2022/09/23 04:53:53;;;;;;;69.68;50.92;;;19.00;62.90;;;;;;4965171;28;102013;-60
2022/09/23 04:56:26;;;;;;;68.07;50.35;;;18.90;62.20;;;;;;4962784;28;96209;-60
2022/09/23 04:58:53;;;;;;;69.13;50.75;;;18.90;62.50;;;;;;4957114;28;95472;-61
2022/09/23 05:01:25;;;;;;;69.65;50.08;;;18.90;62.20;;;;;;4973165;28;94951;-61
2022/09/23 05:03:53;;;;;;;67.10;49.83;;;19.00;62.10;;;;;;4963981;28;96178;-61
2022/09/23 05:06:20;;;;;;;67.25;50.30;;;18.90;62.30;;;;;;4959696;28;95456;-60
2022/09/23 05:08:54;;;;;;;68.13;50.65;;;18.90;62.40;;;;;;4961944;28;99422;-61
2022/09/23 05:11:20;;;;;;;67.68;50.50;;;18.90;62.30;;;;;;4965038;28;95422;-58
2022/09/23 05:13:47;;;;;;;68.47;49.95;;;19.00;62.30;;;;;;4966609;28;100787;-60
2022/09/23 05:16:13;;;;;;;69.22;50.40;;;18.90;62.20;;;;;;4966511;28;96722;-60
2022/09/23 05:18:41;;;;;;;67.00;50.22;;;19.00;62.10;;;;;;4961802;28;96232;-60
2022/09/23 05:21:09;;;;;;;67.55;50.28;;;19.00;62.00;;;;;;4969532;28;96494;-55
2022/09/23 05:23:36;;;;;;;68.28;50.15;;;19.00;62.10;;;;;;4968529;28;94708;-60
2022/09/23 05:26:05;;;;;;;67.18;50.30;;;18.90;62.10;;;;;;4962456;28;95124;-61
2022/09/23 05:28:32;;;;;;;66.90;50.17;;;18.90;62.10;;;;;;4962837;28;95737;-61
2022/09/23 05:31:06;;;;;;;68.55;50.20;;;19.00;62.00;;;;;;4963800;28;95609;-60
2022/09/23 05:33:33;;;;;;;67.25;50.25;;;19.00;62.10;;;;;;4967345;28;96966;-60
2022/09/23 05:35:59;;;;;;;67.40;50.05;;;18.90;62.00;;;;;;4955086;28;96393;-60
2022/09/23 05:38:27;;;;;;;67.82;50.13;;;18.90;62.20;;;;;;4964186;28;96566;-60
2022/09/23 05:41:00;;;;;;;66.85;50.03;;;18.90;62.10;;;;;;4953456;28;95707;-61
2022/09/23 05:43:26;;;;;;;67.00;49.75;;;18.90;62.20;;;;;;4959816;28;96094;-61
2022/09/23 05:46:00;;;;;;;68.05;50.47;;;18.90;62.30;;;;;;4954422;28;95291;-60
2022/09/23 05:48:26;;;;;;;68.25;50.40;;;18.90;62.20;;;;;;4960149;28;95218;-60
2022/09/23 05:50:52;;;;;;;69.55;50.55;;;18.90;62.50;;;;;;4957427;28;96330;-58
2022/09/23 05:53:18;;;;;;;69.22;50.42;;;18.80;62.60;;;;;;4962040;28;97327;-60
2022/09/23 05:55:45;;;;;;;68.53;50.45;;;18.80;62.80;;;;;;4959678;28;102888;-60
2022/09/23 05:58:14;;;;;;;68.40;50.60;;;18.90;62.50;;;;;;4966677;28;95618;-60
2022/09/23 06:00:41;;;;;;;72.25;50.83;;;19.00;62.10;;;;;;4956270;28;95455;-60
2022/09/23 06:03:17;;;;;;;72.20;50.53;;;19.10;62.20;;;;;;4963059;28;95572;-60
2022/09/23 06:05:43;;;;;;;71.68;50.70;;;19.10;62.30;;;;;;4957998;28;101355;-60
2022/09/23 06:08:10;;;;;;;72.22;50.85;;;19.10;61.90;;;;;;4957892;28;95145;-60
2022/09/23 06:10:40;;;;;;;70.07;50.80;;;19.10;62.10;;;;;;4956845;28;101747;-60
2022/09/23 06:13:07;;;;;;;68.10;50.27;;;19.10;61.90;;;;;;4962319;28;97782;-60
2022/09/23 06:15:33;;;;;;;68.82;50.75;;;19.20;61.70;;;;;;4954920;28;95391;-60
2022/09/23 06:17:59;;;;;;;71.35;50.35;;;19.20;61.50;;;;;;4957308;28;99384;-62
2022/09/23 06:20:25;;;;;;;71.45;50.65;;;19.20;61.50;;;;;;4958290;28;95067;-60
2022/09/23 06:22:52;;;;;;;71.47;50.65;;;19.10;61.60;;;;;;4963675;28;95764;-59
2022/09/23 06:25:18;;;;;;;70.22;50.33;;;19.10;61.40;;;;;;4963667;28;94976;-59
2022/09/23 06:27:53;;;;;;;71.68;50.60;;;19.20;61.20;;;;;;4955920;28;96868;-59
2022/09/23 06:30:19;;;;;;;71.55;50.92;;;19.20;60.90;;;;;;4956291;28;95486;-59
2022/09/23 06:32:52;;;;;;;70.00;50.78;;;19.20;61.20;;;;;;4964390;28;95970;-59
2022/09/23 06:35:24;;;;;;;69.55;51.03;;;19.30;60.90;;;;;;4968122;28;96907;-61
2022/09/23 06:37:49;;;;;;;69.32;50.83;;;19.20;60.70;;;;;;4959923;28;95251;-59
2022/09/23 06:40:15;;;;;;;68.32;50.72;;;19.30;60.60;;;;;;4960355;28;95031;-59
2022/09/23 06:42:41;;;;;;;70.72;50.88;;;19.30;60.60;;;;;;4970902;28;98275;-60
2022/09/23 06:45:11;;;;;;;68.53;50.53;;;19.20;60.90;;;;;;4963031;28;97238;-60
2022/09/23 06:47:38;;;;;;;70.07;50.75;;;19.30;60.80;;;;;;4957331;28;95616;-61
2022/09/23 06:50:05;;;;;;;70.32;50.97;;;19.30;60.60;;;;;;4966661;28;99888;-57
2022/09/23 06:52:31;;;;;;;69.00;50.40;;;19.20;60.70;;;;;;4966310;28;95435;-59
2022/09/23 06:54:57;;;;;;;72.28;50.58;;;19.40;60.60;;;;;;4971779;28;96157;-59
2022/09/23 06:57:23;;;;;;;70.28;50.60;;;19.30;60.50;;;;;;4961542;28;96082;-58
2022/09/23 06:59:49;;;;;;;72.20;50.75;;;19.40;60.10;;;;;;4959345;28;95754;-60
2022/09/23 07:02:15;;;;;;;70.20;50.47;;;19.40;60.00;;;;;;4965566;28;95988;-59
2022/09/23 07:04:40;;;;;;;68.82;50.45;;;19.50;59.90;;;;;;4962536;28;95135;-62
2022/09/23 07:07:06;;;;;;;70.28;50.88;;;19.50;59.70;;;;;;4957463;28;97188;-60
2022/09/23 07:09:32;;;;;;;71.65;51.22;;;19.50;60.20;;;;;;4961366;28;94831;-59
2022/09/23 07:11:57;;;;;;;71.55;51.15;;;19.60;60.40;;;;;;4965672;28;98318;-60
2022/09/23 07:14:23;;;;;;;73.38;51.17;;;19.60;60.80;;;;;;4960166;28;98282;-56
2022/09/23 07:16:49;;;;;;;71.15;51.75;;;19.50;61.30;;;;;;4964917;28;97267;-58
2022/09/23 07:19:15;;;;;;;71.55;51.30;;;19.40;61.90;;;;;;4964495;28;95647;-58
2022/09/23 07:21:41;;;;;;;74.25;50.97;;;19.40;62.90;;;;;;4962483;28;95828;-60
2022/09/23 07:24:07;;;;;;;75.28;51.25;;;19.40;62.20;;;;;;4960226;28;95260;-60
2022/09/23 07:26:33;;;;;;;70.13;51.13;;;19.40;62.30;;;;;;4964419;28;98749;-61
2022/09/23 07:29:03;;;;;;;71.43;51.15;;;19.40;62.00;;;;;;4956946;28;95206;-61
2022/09/23 07:31:34;;;;;;;71.00;51.73;;;19.40;62.20;;;;;;4971851;28;96291;-58
2022/09/23 07:34:00;;;;;;;76.53;52.50;;;19.30;62.10;;;;;;4955876;28;96958;-63
2022/09/23 07:36:27;;;;;;;74.25;52.33;;;19.40;61.90;;;;;;4962306;28;95070;-61
2022/09/23 07:39:02;;;;;;;75.40;52.65;;;19.50;61.30;;;;;;4963561;28;95963;-62
2022/09/23 07:41:30;;;;;;;73.32;52.15;;;19.60;60.70;;;;;;4951852;28;99795;-59
2022/09/23 07:44:00;;;;;;;77.95;52.22;;;19.70;60.30;;;;;;4955720;28;95249;-62
2022/09/23 07:46:28;;;;;;;73.38;52.08;;;19.70;59.90;;;;;;4959485;28;95099;-63
2022/09/23 07:48:54;;;;;;;75.57;52.70;;;19.90;59.60;;;;;;4961254;28;100563;-61
2022/09/23 07:51:37;;;;;;;75.70;53.22;;;19.90;59.00;;;;;;4954515;28;96213;-61
2022/09/23 07:54:06;;;;;;;75.88;53.03;;;19.90;59.40;;;;;;4957340;28;96518;-62
2022/09/23 07:56:32;;;;;;;77.63;52.83;;;19.90;59.30;;;;;;4967039;28;96431;-49
2022/09/23 07:59:02;;;;;;;82.93;53.63;;;19.90;59.30;;;;;;4963005;28;96035;-52
2022/09/23 08:01:40;;;;;;;85.28;53.70;;;19.90;59.50;;;;;;4968535;28;96119;-50
2022/09/23 08:04:17;;;;;;;77.93;52.97;;;19.90;59.80;;;;;;4963599;28;95260;-50
2022/09/23 08:06:46;;;;;;;77.60;52.92;;;19.90;60.50;;;;;;4962675;28;97303;-48
2022/09/23 08:09:12;;;;;;;76.55;52.97;;;20.00;59.80;;;;;;4957059;28;96562;-50
2022/09/23 08:11:40;;;;;;;75.28;53.00;;;19.90;59.50;;;;;;4959723;28;95934;-51
2022/09/23 08:14:12;;;;;;;77.95;53.03;;;20.00;59.50;;;;;;4961556;28;95768;-48
2022/09/23 08:16:38;;;;;;;76.82;52.45;;;20.10;59.10;;;;;;4969369;28;94983;-52
2022/09/23 08:19:05;;;;;;;76.80;52.63;;;20.10;59.10;;;;;;4962299;28;96773;-49
2022/09/23 08:21:31;;;;;;;77.78;53.20;;;20.10;58.60;;;;;;4965683;28;97334;-55
2022/09/23 08:23:56;;;;;;;77.60;53.03;;;20.10;59.00;;;;;;4971405;28;95480;-48
2022/09/23 08:26:22;;;;;;;77.65;52.67;;;20.00;60.20;;;;;;4968678;28;95171;-52
2022/09/23 08:28:52;;;;;;;74.88;53.00;;;20.10;60.60;;;;;;4969203;28;95757;-50
2022/09/23 08:31:18;;;;;;;73.97;52.45;;;20.10;60.00;;;;;;4959626;28;95249;-55
2022/09/23 08:33:44;;;;;;;76.78;52.33;;;20.10;59.90;;;;;;4963263;28;95306;-50
2022/09/23 08:36:10;;;;;;;77.72;53.10;;;20.20;59.80;;;;;;4963478;28;96085;-47
2022/09/23 08:38:36;;;;;;;81.55;53.42;;;20.20;59.50;;;;;;4967520;28;96710;-48
2022/09/23 08:41:13;;;;;;;75.78;52.65;;;20.10;59.80;;;;;;4974135;28;95307;-52
2022/09/23 08:43:48;;;;;;;76.22;53.05;;;20.10;60.10;;;;;;4970025;28;95540;-49
2022/09/23 08:46:22;;;;;;;75.60;52.75;;;20.10;60.00;;;;;;4959525;28;96220;-50
2022/09/23 08:48:49;;;;;;;74.03;52.55;;;20.00;59.90;;;;;;4963588;28;95947;-54
2022/09/23 08:51:32;;;;;;;78.32;52.85;;;20.10;60.00;;;;;;4945909;28;96096;-50
2022/09/23 08:53:59;;;;;;;74.93;52.75;;;20.10;59.70;;;;;;4950133;28;96683;-54
2022/09/23 08:56:24;;;;;;;75.88;52.65;;;20.10;59.60;;;;;;4952353;28;95391;-54
2022/09/23 08:59:02;;;;;;;73.78;52.22;;;20.10;59.60;;;;;;4939249;28;95860;-57
2022/09/23 09:01:43;;;;;;;75.47;52.72;;;20.10;59.50;;;;;;4956299;28;95405;-55
2022/09/23 09:04:27;;;;;;;75.25;52.70;;;20.10;59.50;;;;;;4955978;28;95117;-52
2022/09/23 09:07:03;;;;;;;74.95;52.53;;;20.10;60.00;;;;;;4960631;28;96577;-49
2022/09/23 09:09:52;;;;;;;73.85;52.58;;;20.10;60.00;;;;;;4960815;28;95961;-49
2022/09/23 09:12:19;;;;;;;73.28;52.17;;;20.00;59.90;;;;;;4966026;28;96888;-52
2022/09/23 09:15:02;;;;;;;72.13;51.95;;;20.10;59.80;;;;;;4959972;28;97507;-51
2022/09/23 09:17:58;;;;;;;73.88;52.35;;;20.10;59.80;;;;;;4952889;28;94967;-54
2022/09/23 09:20:44;;;;;;;73.75;52.20;;;20.10;59.60;;;;;;4973269;28;95502;-54
2022/09/23 09:23:10;;;;;;;73.13;52.05;;;20.20;59.60;;;;;;4968436;28;95776;-54
2022/09/23 09:25:46;;;;;;;72.88;52.72;;;20.20;59.50;;;;;;4960967;28;95784;-52
2022/09/23 09:28:17;;;;;;;73.05;52.13;;;20.20;59.50;;;;;;4955043;28;99624;-53
2022/09/23 09:30:44;;;;;;;75.97;52.50;;;20.20;59.50;;;;;;4958909;28;94373;-54
2022/09/23 09:33:16;;;;;;;75.63;52.55;;;20.20;59.50;;;;;;4960425;28;100478;-52
2022/09/23 09:35:49;;;;;;;74.13;52.20;;;20.20;59.50;;;;;;4958005;28;97185;-51
2022/09/23 09:38:15;;;;;;;75.60;52.15;;;20.20;59.50;;;;;;4958461;28;96579;-55
2022/09/23 09:40:45;;;;;;;73.90;52.25;;;20.20;59.50;;;;;;4962571;28;98391;-49
2022/09/23 09:43:22;;;;;;;73.55;52.50;;;20.20;59.50;;;;;;4969206;28;96380;-54
2022/09/23 09:46:14;;;;;;;73.43;52.50;;;20.20;59.50;;;;;;4958246;28;95196;-50
2022/09/23 09:48:53;;;;;;;76.95;52.63;;;20.20;59.50;;;;;;4958891;28;97504;-52
2022/09/23 09:51:24;;;;;;;74.03;52.17;;;20.20;59.50;;;;;;4965293;28;95085;-50
2022/09/23 09:53:54;;;;;;;74.05;52.33;;;20.20;59.40;;;;;;4962667;28;96027;-51
2022/09/23 09:56:31;;;;;;;73.25;51.78;;;20.20;59.40;;;;;;4958912;28;94298;-53
2022/09/23 09:59:07;;;;;;;74.78;51.90;;;20.30;59.40;;;;;;4966812;28;94631;-52
2022/09/23 10:01:34;;;;;;;74.93;51.88;;;20.30;59.40;;;;;;4965663;28;95009;-49
2022/09/23 10:04:03;;;;;;;72.50;52.15;;;20.20;59.40;;;;;;4953257;28;103464;-52
2022/09/23 10:06:34;;;;;;;74.55;52.10;;;20.30;59.50;;;;;;4965583;28;96094;-50
2022/09/23 10:09:03;;;;;;;74.90;52.42;;;20.30;59.40;;;;;;4963302;28;95149;-50
2022/09/23 10:11:30;;;;;;;73.22;52.00;;;20.30;59.40;;;;;;4980404;28;95400;-50
2022/09/23 10:14:01;;;;;;;74.90;52.35;;;20.30;59.40;;;;;;4966766;28;96417;-52
2022/09/23 10:16:33;;;;;;;72.82;52.22;;;20.30;59.40;;;;;;4963425;28;95732;-50
2022/09/23 10:19:00;;;;;;;73.07;51.60;;;20.30;60.30;;;;;;4969811;28;95011;-50
2022/09/23 10:21:34;;;;;;;76.38;52.08;;;20.40;61.20;;;;;;4966810;28;94564;-50
2022/09/23 10:24:02;;;;;;;73.70;51.80;;;20.50;60.70;;;;;;4971341;28;96351;-51
2022/09/23 10:26:31;;;;;;;73.75;51.80;;;20.50;60.60;;;;;;4971055;28;96484;-48
2022/09/23 10:29:00;;;;;;;74.57;51.78;;;20.50;60.60;;;;;;4963907;28;96217;-48
2022/09/23 10:31:31;;;;;;;74.60;52.03;;;20.40;60.60;;;;;;4967366;28;96565;-53
2022/09/23 10:34:02;;;;;;;77.38;52.47;;;20.40;60.60;;;;;;4964341;28;95432;-50
2022/09/23 10:36:30;;;;;;;76.18;52.78;;;20.40;61.70;;;;;;4962189;28;95337;-53
2022/09/23 10:48:21;;;;;;;76.07;52.45;;;20.40;64.30;;;;;;4972682;28;94934;-54
2022/09/23 10:50:50;;;;;;;74.15;51.85;;;20.40;64.80;;;;;;4966905;27;95386;-48
2022/09/23 10:53:40;;;;;;;74.88;52.15;;;20.50;65.30;;;;;;4970691;28;95107;-49
2022/09/23 10:56:09;;;;;;;73.75;52.00;;;20.50;65.60;;;;;;4961378;28;98552;-54
2022/09/23 10:59:10;;;;;;;73.45;52.08;;;20.50;65.70;;;;;;4966227;28;96323;-49
2022/09/23 11:02:01;;;;;;;75.00;52.47;;;20.50;65.90;;;;;;4968829;28;98188;-48
2022/09/23 11:04:35;;;;;;;72.90;51.47;;;20.50;66.00;;;;;;4963390;28;95555;-49
2022/09/23 11:07:34;;;;;;;73.70;52.08;;;20.50;66.80;;;;;;4968703;28;96846;-50
2022/09/23 11:10:27;;;;;;;74.13;52.08;;;20.50;66.10;;;;;;4931304;28;96711;-48
2022/09/23 11:12:55;;;;;;;73.85;52.72;;;20.50;65.90;;;;;;4951907;28;95908;-52
2022/09/23 11:15:42;;;;;;;74.40;52.03;;;20.50;65.90;;;;;;4962497;28;95368;-47
2022/09/23 11:18:37;;;;;;;73.53;52.40;;;20.50;65.80;;;;;;4960601;28;99105;-48
2022/09/23 11:21:24;;;;;;;75.63;52.50;;;20.50;65.60;;;;;;4957882;28;95383;-50
2022/09/23 11:23:53;;;;;;;74.03;52.42;;;20.50;65.30;;;;;;4954378;28;96512;-48
2022/09/23 11:26:56;;;;;;;73.55;52.30;;;20.60;65.10;;;;;;4959330;28;95103;-50
2022/09/23 11:29:30;;;;;;;74.38;52.13;;;20.50;64.90;;;;;;4959040;28;96026;-48
2022/09/23 11:32:23;;;;;;;72.22;52.20;;;20.60;64.80;;;;;;4964492;28;95871;-52
2022/09/23 11:35:01;;;;;;;74.38;52.50;;;20.60;64.60;;;;;;4958173;28;98100;-47
2022/09/23 11:37:36;;;;;;;72.00;51.72;;;20.60;64.40;;;;;;4956079;28;96423;-47
2022/09/23 11:40:17;;;;;;;73.32;52.15;;;20.60;65.00;;;;;;4960602;28;100651;-46
2022/09/23 11:43:06;;;;;;;73.82;52.03;;;20.60;64.20;;;;;;4962392;28;100494;-46
2022/09/23 11:45:36;;;;;;;73.63;52.25;;;20.60;64.00;;;;;;4971239;28;94952;-48
2022/09/23 11:48:31;;;;;;;73.20;51.80;;;20.60;63.90;;;;;;4968805;28;98094;-50
2022/09/23 11:51:05;;;;;;;72.97;51.72;;;20.60;63.70;;;;;;4977909;28;102335;-49
2022/09/23 11:53:41;;;;;;;74.60;51.95;;;20.60;63.60;;;;;;4961897;28;97371;-50
2022/09/23 11:56:10;;;;;;;73.10;51.97;;;20.60;63.60;;;;;;4965576;28;98159;-47
2022/09/23 11:58:48;;;;;;;72.68;52.00;;;20.60;63.40;;;;;;4965792;28;98557;-48
2022/09/23 12:01:22;;;;;;;73.55;51.88;;;20.70;63.40;;;;;;4968560;28;96335;-47
2022/09/23 12:03:52;;;;;;;73.75;51.75;;;20.70;63.40;;;;;;4966277;28;95928;-49
2022/09/23 12:06:25;;;;;;;72.28;52.17;;;20.70;63.40;;;;;;4958258;28;96351;-50
2022/09/23 12:09:00;;;;;;;72.90;51.75;;;20.70;63.30;;;;;;4954386;28;100184;-51
2022/09/23 12:11:34;;;;;;;74.95;52.53;;;20.70;63.20;;;;;;4959750;28;96723;-50
2022/09/23 12:14:00;;;;;;;75.20;52.10;;;20.70;63.30;;;;;;4957937;28;95718;-49
2022/09/23 12:16:34;;;;;;;73.38;52.10;;;20.70;63.40;;;;;;4957059;28;103187;-50
2022/09/23 12:19:37;;;;;;;73.03;52.00;;;20.70;63.40;;;;;;4956935;28;95410;-49
2022/09/23 12:22:16;;;;;;;73.47;52.28;;;20.70;63.40;;;;;;4958148;28;101619;-48
2022/09/23 12:24:54;;;;;;;73.93;52.00;;;20.80;63.40;;;;;;4963929;28;96245;-46
2022/09/23 12:27:47;;;;;;;72.55;52.13;;;20.80;63.40;;;;;;4966212;28;94795;-49
2022/09/23 12:30:27;;;;;;;75.00;52.22;;;20.70;63.30;;;;;;4957700;28;97509;-48
2022/09/23 12:33:26;;;;;;;73.95;51.75;;;20.80;63.30;;;;;;4961111;28;95974;-47
2022/09/23 12:35:54;;;;;;;72.82;52.15;;;20.80;63.10;;;;;;4958730;28;98730;-49
2022/09/23 12:38:24;;;;;;;75.05;52.03;;;20.80;63.00;;;;;;4962868;28;95034;-52
2022/09/23 12:40:51;;;;;;;73.63;51.83;;;20.80;62.80;;;;;;4966403;28;96323;-47
2022/09/23 12:43:28;;;;;;;73.72;52.13;;;20.80;62.70;;;;;;4960298;28;96201;-47
2022/09/23 12:46:15;;;;;;;74.03;51.85;;;20.80;62.60;;;;;;4960572;28;96765;-50
2022/09/23 12:48:59;;;;;;;72.20;51.97;;;20.80;62.50;;;;;;4961346;28;94815;-51
2022/09/23 12:51:33;;;;;;;72.93;51.97;;;20.80;62.40;;;;;;4959466;28;95060;-50
2022/09/23 12:53:59;;;;;;;72.10;51.65;;;20.80;62.30;;;;;;4971409;28;95032;-50
2022/09/23 12:56:27;;;;;;;72.55;51.33;;;20.80;62.20;;;;;;4971296;28;96340;-47
2022/09/23 12:59:09;;;;;;;73.03;52.10;;;20.80;62.00;;;;;;4959101;28;100252;-50
2022/09/23 13:01:36;;;;;;;72.43;51.80;;;20.80;61.90;;;;;;4958442;28;95002;-50
2022/09/23 13:07:06;;;;;;;71.90;51.60;;;20.80;61.80;;;;;;4963374;28;95469;-49